Eddyville, Oregon
Current Conditions -  °F | °C
As of 8:15 PM on Friday 19 Dec 2014 (Local Time) from KONP Reporting Station
Moderate Rain Moderate Rain  
Wind Chill: 44°   Ceiling: 1300
Heat Index: 48°   Visibility: 5mi
Dew Point: 46°   Wind: 10mph
Humidity: 93%   Direction: 170°S
Pressure: 29.96"   Gusts: 21mph
Location:  44.63°N, 123.78°W
Report Text: KONP 200415Z AUTO 17009G18KT 5SM RA SCT009 BKN013 BKN021 09/08 A2996 RMK AO2 P0005
Loading
Personal Weather Stations






























Interactive Weather Map New forecast layout! Learn more

10-Day Weather Forecast

Advertisements
Track Severe Weather on mobile